Fredericksburg, Pennsylvania
Current Conditions -  °F | °C
As of 12:58 AM on Tuesday 21 Oct 2014 (Local Time) from KMUI Reporting Station
Light Rain Light Rain  
Wind Chill: 52°   Ceiling: 5500
Heat Index: 52°   Visibility: 10mi
Dew Point: 51°   Wind: 0mph
Humidity: 99%   Direction: NA
Pressure: 29.92"   Gusts: NA
Location:  40.45°N, 76.43°W
Report Text: KMUI 210458Z AUTO 00000KT 10SM -RA OVC055 11/11 A2992 RMK AO2 RAB0455 SLP135 P0000 T01090107 401651004 $
Loading
Personal Weather Stations






























Interactive Weather Map
Tropical Storm Tracking
New forecast layout! Learn more

10-Day Weather Forecast

Advertisements
Track Severe Weather on mobile